Time;durP1;ratioP1;P1;durP2;ratioP2;P2;SDS_P1;SDS_P2;PMS_P1;PMS_P2;Temp;Humidity;BMP_temperature;BMP_pressure;BME280_temperature;BME280_humidity;BME280_pressure;Samples;Min_cycle;Max_cycle;Signal;HPM_P1;HPM_P2
2023/04/19 00:00:38;;;;;;;15.55;10.15;;;7.60;99.90;;;;;;5083733;28;20127;-65
2023/04/19 00:03:07;;;;;;;15.10;9.60;;;7.60;99.90;;;;;;5045961;28;20115;-66
2023/04/19 00:05:33;;;;;;;12.93;9.77;;;7.60;99.90;;;;;;5062920;28;20048;-66
2023/04/19 00:07:59;;;;;;;15.60;10.88;;;7.60;99.90;;;;;;5065145;28;20032;-66
2023/04/19 00:10:25;;;;;;;15.68;9.90;;;7.60;99.90;;;;;;5085362;28;20043;-66
2023/04/19 00:12:51;;;;;;;16.13;9.40;;;7.60;99.90;;;;;;5077575;28;20048;-66
2023/04/19 00:15:18;;;;;;;17.90;9.60;;;7.60;99.90;;;;;;5080746;28;20036;-66
2023/04/19 00:17:44;;;;;;;16.95;9.35;;;7.50;99.90;;;;;;5081855;28;20043;-65
2023/04/19 00:20:11;;;;;;;13.90;9.50;;;7.50;99.90;;;;;;5063288;28;20131;-66
2023/04/19 00:22:38;;;;;;;14.20;9.20;;;7.50;99.90;;;;;;5086022;28;20101;-65
2023/04/19 00:25:04;;;;;;;12.48;9.18;;;7.40;99.90;;;;;;5087188;28;20800;-65
2023/04/19 00:27:30;;;;;;;16.17;9.90;;;7.40;99.90;;;;;;5099067;28;20068;-65
2023/04/19 00:29:56;;;;;;;16.13;9.65;;;7.40;99.90;;;;;;5090062;28;20079;-65
2023/04/19 00:32:22;;;;;;;15.68;9.05;;;7.40;99.90;;;;;;5099139;28;20035;-65
2023/04/19 00:34:48;;;;;;;15.95;9.15;;;7.40;99.90;;;;;;5073008;28;20082;-65
2023/04/19 00:37:14;;;;;;;12.70;8.80;;;7.40;99.90;;;;;;5092073;28;20036;-65
2023/04/19 00:39:40;;;;;;;13.18;8.68;;;7.40;99.90;;;;;;5085593;28;20089;-65
2023/04/19 00:42:06;;;;;;;14.57;8.60;;;7.40;99.90;;;;;;5082335;28;20497;-65
2023/04/19 00:44:32;;;;;;;11.82;7.88;;;7.40;99.90;;;;;;5081637;28;20503;-65
2023/04/19 00:46:59;;;;;;;16.70;9.07;;;7.40;99.90;;;;;;5078846;28;20040;-65
2023/04/19 00:49:26;;;;;;;10.98;7.97;;;7.40;99.90;;;;;;5082935;28;20082;-65
2023/04/19 00:51:52;;;;;;;12.05;8.43;;;7.40;99.90;;;;;;5081945;28;20111;-65
2023/04/19 00:54:19;;;;;;;13.20;8.20;;;7.40;99.90;;;;;;5081910;28;20386;-65
2023/04/19 00:56:45;;;;;;;12.20;8.02;;;7.40;99.90;;;;;;5082150;28;20402;-65
2023/04/19 00:59:13;;;;;;;11.95;7.80;;;7.40;99.90;;;;;;5085588;28;20773;-65
2023/04/19 01:01:40;;;;;;;10.68;8.00;;;7.40;99.90;;;;;;5080301;28;20248;-65
2023/04/19 01:04:06;;;;;;;11.95;8.35;;;7.40;99.90;;;;;;5066053;28;20055;-65
2023/04/19 01:06:33;;;;;;;12.20;7.45;;;7.40;99.90;;;;;;5081210;28;20075;-65
2023/04/19 01:08:59;;;;;;;11.30;7.80;;;7.40;99.90;;;;;;5081310;28;20412;-65
2023/04/19 01:11:26;;;;;;;12.90;7.82;;;7.40;99.90;;;;;;5081809;28;20056;-65
2023/04/19 01:13:52;;;;;;;11.95;8.02;;;7.40;99.90;;;;;;5048667;28;20040;-65
2023/04/19 01:16:18;;;;;;;16.33;8.30;;;7.40;99.90;;;;;;5079717;28;20104;-66
2023/04/19 01:18:44;;;;;;;13.30;8.82;;;7.40;99.90;;;;;;5066534;28;20036;-65
2023/04/19 01:21:11;;;;;;;13.57;8.90;;;7.40;99.90;;;;;;5078989;28;21716;-65
2023/04/19 01:23:38;;;;;;;14.98;7.80;;;7.40;99.90;;;;;;5063209;28;20059;-66
2023/04/19 01:26:04;;;;;;;11.25;7.55;;;7.40;99.90;;;;;;5076758;28;20043;-66
2023/04/19 01:28:30;;;;;;;14.77;8.05;;;7.40;99.90;;;;;;5083055;28;20032;-66
2023/04/19 01:30:56;;;;;;;13.07;8.13;;;7.40;99.90;;;;;;5081383;28;20047;-65
2023/04/19 01:33:22;;;;;;;14.20;7.93;;;7.40;99.90;;;;;;5061322;28;20037;-66
2023/04/19 01:35:48;;;;;;;12.02;8.80;;;7.30;99.90;;;;;;5078241;28;20143;-66
2023/04/19 01:38:14;;;;;;;14.32;8.57;;;7.30;99.90;;;;;;5060167;28;20070;-66
2023/04/19 01:40:40;;;;;;;15.45;9.00;;;7.30;99.90;;;;;;5079195;28;20040;-66
2023/04/19 01:43:06;;;;;;;11.95;7.78;;;7.30;99.90;;;;;;5080405;28;20066;-66
2023/04/19 01:45:33;;;;;;;13.27;8.05;;;7.30;99.90;;;;;;5079928;28;20515;-66
2023/04/19 01:48:03;;;;;;;15.48;8.43;;;7.20;99.90;;;;;;5059999;28;20169;-66
2023/04/19 01:50:29;;;;;;;11.13;7.68;;;7.20;99.90;;;;;;5080388;28;20115;-65
2023/04/19 01:52:55;;;;;;;11.48;7.65;;;7.20;99.90;;;;;;5062592;28;20048;-66
2023/04/19 01:55:21;;;;;;;13.38;7.63;;;7.10;99.90;;;;;;5060333;28;20039;-66
2023/04/19 01:57:47;;;;;;;15.85;8.43;;;7.10;99.90;;;;;;5076850;28;20165;-66
2023/04/19 02:00:14;;;;;;;11.25;8.10;;;7.10;99.90;;;;;;5077477;28;20178;-66
2023/04/19 02:02:40;;;;;;;12.75;7.72;;;7.10;99.90;;;;;;5078775;28;20032;-66
2023/04/19 02:05:07;;;;;;;13.35;7.57;;;7.10;99.90;;;;;;5062501;28;20047;-66
2023/04/19 02:07:33;;;;;;;13.63;8.10;;;7.00;99.90;;;;;;5062512;28;20071;-66
2023/04/19 02:09:59;;;;;;;10.18;7.43;;;7.00;99.90;;;;;;5081669;28;20074;-66
2023/04/19 02:12:29;;;;;;;14.57;8.10;;;7.00;99.90;;;;;;5081940;28;20063;-66
2023/04/19 02:14:59;;;;;;;16.60;8.30;;;6.90;99.90;;;;;;5078217;28;20048;-66
2023/04/19 02:17:25;;;;;;;15.20;8.15;;;6.90;99.90;;;;;;5061652;28;20085;-66
2023/04/19 02:19:51;;;;;;;12.63;8.00;;;6.90;99.90;;;;;;5078131;28;20036;-66
2023/04/19 02:22:18;;;;;;;12.73;8.25;;;6.90;99.90;;;;;;5077587;28;20132;-66
2023/04/19 02:24:44;;;;;;;11.93;7.38;;;6.90;99.90;;;;;;5078677;28;21639;-66
2023/04/19 02:27:10;;;;;;;11.77;7.70;;;6.80;99.90;;;;;;5061085;28;20044;-66
2023/04/19 02:29:37;;;;;;;11.05;7.78;;;6.80;99.90;;;;;;5076112;28;20041;-66
2023/04/19 02:32:04;;;;;;;10.98;7.18;;;6.80;99.90;;;;;;5081042;28;20531;-65
2023/04/19 02:34:31;;;;;;;13.88;6.88;;;6.80;99.90;;;;;;5078521;28;20136;-66
2023/04/19 02:36:57;;;;;;;12.05;7.32;;;6.80;99.90;;;;;;5041949;28;20055;-66
2023/04/19 02:39:23;;;;;;;13.05;7.40;;;6.80;99.90;;;;;;5062946;28;20044;-66
2023/04/19 02:41:49;;;;;;;14.85;7.78;;;6.80;99.90;;;;;;5079132;28;20436;-66
2023/04/19 02:44:14;;;;;;;11.88;7.60;;;6.80;99.90;;;;;;5062050;28;20115;-66
2023/04/19 02:46:40;;;;;;;11.27;7.35;;;6.80;99.90;;;;;;5046736;28;20119;-66
2023/04/19 02:49:06;;;;;;;12.60;7.72;;;6.70;99.90;;;;;;5077059;28;20694;-66
2023/04/19 02:51:32;;;;;;;10.85;7.97;;;6.70;99.90;;;;;;5062499;28;20039;-66
2023/04/19 02:53:57;;;;;;;13.00;7.88;;;6.60;99.90;;;;;;5075819;28;20095;-66
2023/04/19 02:56:23;;;;;;;14.57;8.52;;;6.50;99.90;;;;;;5080481;28;20043;-66
2023/04/19 02:58:49;;;;;;;14.07;8.23;;;6.50;99.90;;;;;;5060956;28;20422;-66
2023/04/19 03:01:15;;;;;;;14.18;7.93;;;6.40;99.90;;;;;;5063225;28;20051;-65
2023/04/19 03:03:40;;;;;;;14.15;8.02;;;6.30;99.90;;;;;;5080437;28;20036;-66
2023/04/19 03:06:07;;;;;;;11.68;8.02;;;6.20;99.90;;;;;;5079091;28;20470;-66
2023/04/19 03:08:33;;;;;;;14.32;8.05;;;6.20;99.90;;;;;;5079776;28;20753;-66
2023/04/19 03:10:59;;;;;;;12.55;7.78;;;6.10;99.90;;;;;;5062455;28;20040;-66
2023/04/19 03:13:24;;;;;;;14.43;8.82;;;6.00;99.90;;;;;;5062722;28;20036;-66
2023/04/19 03:15:51;;;;;;;15.30;8.40;;;5.90;99.90;;;;;;5080182;28;20047;-65
2023/04/19 03:18:17;;;;;;;15.68;8.55;;;5.90;99.90;;;;;;5081974;28;20535;-66
2023/04/19 03:20:42;;;;;;;14.55;8.73;;;5.80;99.90;;;;;;5075414;28;20044;-66
2023/04/19 03:23:08;;;;;;;16.73;8.20;;;5.70;99.90;;;;;;5061096;28;20039;-66
2023/04/19 03:25:34;;;;;;;14.15;8.65;;;5.60;99.90;;;;;;5044261;28;20107;-66
2023/04/19 03:27:59;;;;;;;16.23;9.15;;;5.60;99.90;;;;;;5064650;28;20036;-66
2023/04/19 03:30:25;;;;;;;14.88;9.05;;;5.50;99.90;;;;;;5077634;28;20156;-66
2023/04/19 03:32:51;;;;;;;14.60;8.70;;;5.50;99.90;;;;;;5075119;28;20489;-66
2023/04/19 03:35:17;;;;;;;15.27;9.18;;;5.40;99.90;;;;;;5078567;28;20040;-65
2023/04/19 03:37:43;;;;;;;19.23;9.02;;;5.30;99.90;;;;;;5060818;28;20056;-66
2023/04/19 03:40:09;;;;;;;17.85;8.98;;;5.20;99.90;;;;;;5076359;28;20040;-65
2023/04/19 03:42:35;;;;;;;15.52;8.65;;;5.20;99.90;;;;;;5078242;28;20055;-66
2023/04/19 03:45:00;;;;;;;12.30;8.07;;;5.10;99.90;;;;;;5079894;28;20457;-66
2023/04/19 03:47:26;;;;;;;12.27;8.65;;;5.10;99.90;;;;;;5060569;28;20074;-66
2023/04/19 03:49:52;;;;;;;18.35;8.48;;;5.00;99.90;;;;;;5079820;28;20048;-66
2023/04/19 03:52:18;;;;;;;12.80;8.48;;;5.00;99.90;;;;;;5073607;28;20060;-66
2023/04/19 03:54:44;;;;;;;17.02;9.15;;;5.00;99.90;;;;;;5076649;28;20044;-65
2023/04/19 03:57:12;;;;;;;14.57;8.95;;;4.90;99.90;;;;;;5081586;28;20052;-66
2023/04/19 03:59:37;;;;;;;13.52;8.07;;;4.80;99.90;;;;;;5083436;28;20032;-65
2023/04/19 04:02:05;;;;;;;13.40;8.68;;;4.80;99.90;;;;;;5085804;28;20033;-65
2023/04/19 04:04:31;;;;;;;12.23;7.75;;;4.80;99.90;;;;;;5083723;28;20501;-66
2023/04/19 04:06:56;;;;;;;15.38;8.68;;;4.70;99.90;;;;;;5062789;28;20044;-66
2023/04/19 04:09:22;;;;;;;12.02;8.40;;;4.70;99.90;;;;;;5079355;28;20032;-66
2023/04/19 04:11:48;;;;;;;13.75;8.20;;;4.50;99.90;;;;;;5083165;28;20047;-66
2023/04/19 04:14:14;;;;;;;11.25;7.57;;;4.40;99.90;;;;;;5065261;28;20033;-66
2023/04/19 04:16:40;;;;;;;15.57;8.05;;;4.40;99.90;;;;;;5063098;28;20032;-65
2023/04/19 04:19:06;;;;;;;12.05;7.53;;;4.30;99.90;;;;;;5082520;28;20185;-66
2023/04/19 04:21:31;;;;;;;14.25;8.50;;;4.20;99.90;;;;;;5066124;28;20086;-66
2023/04/19 04:24:00;;;;;;;14.93;8.68;;;4.30;99.90;;;;;;5080441;28;20565;-66
2023/04/19 04:26:29;;;;;;;12.65;7.68;;;4.20;99.90;;;;;;5078153;28;20044;-65
2023/04/19 04:28:56;;;;;;;13.98;7.18;;;4.20;99.90;;;;;;5068131;28;20107;-65
2023/04/19 04:31:22;;;;;;;12.50;7.90;;;4.20;99.90;;;;;;5050086;28;20040;-66
2023/04/19 04:33:48;;;;;;;13.00;7.53;;;4.20;99.90;;;;;;5080763;28;20525;-65
2023/04/19 04:36:14;;;;;;;9.70;7.05;;;4.20;99.90;;;;;;5072449;28;20051;-65
2023/04/19 04:38:40;;;;;;;13.75;7.65;;;4.20;99.90;;;;;;5061019;28;20036;-66
2023/04/19 04:41:06;;;;;;;13.55;7.07;;;4.20;99.90;;;;;;5066823;28;20036;-65
2023/04/19 04:43:32;;;;;;;11.15;7.80;;;4.20;99.90;;;;;;5080680;28;20036;-66
2023/04/19 04:45:58;;;;;;;16.50;7.65;;;4.20;99.90;;;;;;5080422;28;20040;-65
2023/04/19 04:48:24;;;;;;;11.30;6.95;;;4.20;99.90;;;;;;5080271;28;20505;-66
2023/04/19 04:50:49;;;;;;;9.38;7.05;;;4.20;99.90;;;;;;5076656;28;20446;-66
2023/04/19 04:53:15;;;;;;;14.52;7.78;;;4.30;99.90;;;;;;5074576;28;20050;-66
2023/04/19 04:55:41;;;;;;;15.40;8.25;;;4.30;99.90;;;;;;5076070;28;20410;-66
2023/04/19 04:58:07;;;;;;;13.68;7.35;;;4.20;99.90;;;;;;5082370;28;20040;-66
2023/04/19 05:00:33;;;;;;;10.95;7.45;;;4.20;99.90;;;;;;5062781;28;20464;-66
2023/04/19 05:02:59;;;;;;;14.23;7.13;;;4.20;99.90;;;;;;5067080;28;20127;-65
2023/04/19 05:05:25;;;;;;;10.68;6.75;;;4.30;99.90;;;;;;5063987;28;20573;-65
2023/04/19 05:07:50;;;;;;;14.50;7.07;;;4.20;99.90;;;;;;5079159;28;20063;-65
2023/04/19 05:10:16;;;;;;;11.40;6.60;;;4.20;99.90;;;;;;5079122;28;20032;-65
2023/04/19 05:12:42;;;;;;;10.75;6.47;;;4.20;99.90;;;;;;5083618;28;20040;-66
2023/04/19 05:15:08;;;;;;;13.40;6.90;;;4.20;99.90;;;;;;5064060;28;20115;-66
2023/04/19 05:17:34;;;;;;;11.07;6.53;;;4.30;99.90;;;;;;5080842;28;20439;-66
2023/04/19 05:19:59;;;;;;;12.68;6.80;;;4.30;99.90;;;;;;5078884;28;21265;-66
2023/04/19 05:22:26;;;;;;;9.98;6.65;;;4.30;99.90;;;;;;5044953;28;20040;-66
2023/04/19 05:24:52;;;;;;;10.20;6.57;;;4.30;99.90;;;;;;5080978;28;20082;-66
2023/04/19 05:27:18;;;;;;;11.88;6.40;;;4.30;99.90;;;;;;5080944;28;20040;-66
2023/04/19 05:29:43;;;;;;;13.30;6.60;;;4.30;99.90;;;;;;5081040;28;20089;-66
2023/04/19 05:32:09;;;;;;;10.32;6.68;;;4.30;99.90;;;;;;5078776;28;20149;-66
2023/04/19 05:34:35;;;;;;;10.65;5.70;;;4.40;99.90;;;;;;5080218;28;20071;-66
2023/04/19 05:37:02;;;;;;;9.32;5.57;;;4.50;99.90;;;;;;5081876;28;20117;-65
2023/04/19 05:39:28;;;;;;;10.95;6.18;;;4.50;99.90;;;;;;5082325;28;20032;-65
2023/04/19 05:41:54;;;;;;;8.23;5.80;;;4.60;99.90;;;;;;5062202;28;20085;-66
2023/04/19 05:44:20;;;;;;;10.52;6.03;;;4.70;99.90;;;;;;5081442;28;20113;-65
2023/04/19 05:46:45;;;;;;;10.05;5.88;;;4.70;99.90;;;;;;5081670;28;20036;-65
2023/04/19 05:49:11;;;;;;;8.95;4.97;;;4.80;99.90;;;;;;5080289;28;20548;-66
2023/04/19 05:51:37;;;;;;;9.02;5.28;;;4.90;99.90;;;;;;5079243;28;20101;-66
2023/04/19 05:54:02;;;;;;;8.95;5.68;;;5.00;99.90;;;;;;5065970;28;20032;-66
2023/04/19 05:56:29;;;;;;;10.93;5.05;;;5.00;99.90;;;;;;5078816;28;20075;-66
2023/04/19 05:58:59;;;;;;;8.13;5.13;;;5.10;99.90;;;;;;5082718;28;20536;-66
2023/04/19 06:01:25;;;;;;;10.25;5.10;;;5.20;99.90;;;;;;5079122;28;20122;-65
2023/04/19 06:03:52;;;;;;;8.07;5.03;;;5.30;99.90;;;;;;5081077;28;20119;-66
2023/04/19 06:06:22;;;;;;;9.75;4.75;;;5.30;99.90;;;;;;5060197;28;20553;-65
2023/04/19 06:08:48;;;;;;;7.93;4.93;;;5.40;99.90;;;;;;5082912;28;20039;-66
2023/04/19 06:11:14;;;;;;;12.05;5.00;;;5.50;99.90;;;;;;5063902;28;20052;-66
2023/04/19 06:13:40;;;;;;;7.88;4.55;;;5.50;99.90;;;;;;5078434;28;20042;-66
2023/04/19 06:16:06;;;;;;;7.65;4.57;;;5.60;99.90;;;;;;5078949;28;20527;-66
2023/04/19 06:18:32;;;;;;;9.80;4.28;;;5.70;99.90;;;;;;5079855;28;21582;-66
2023/04/19 06:20:58;;;;;;;8.13;4.80;;;5.70;99.90;;;;;;5062256;28;20127;-66
2023/04/19 06:23:25;;;;;;;9.27;5.25;;;5.80;99.90;;;;;;5076892;28;20052;-66
2023/04/19 06:25:51;;;;;;;7.22;4.00;;;5.90;99.90;;;;;;5080104;28;20052;-66
2023/04/19 06:28:17;;;;;;;6.13;3.97;;;5.90;99.90;;;;;;5080965;28;20453;-66
2023/04/19 06:30:44;;;;;;;6.65;4.00;;;6.00;99.90;;;;;;5081072;28;20044;-66
2023/04/19 06:33:09;;;;;;;7.85;4.25;;;6.10;99.90;;;;;;5079209;28;20077;-66
2023/04/19 06:35:35;;;;;;;6.72;3.90;;;6.20;99.90;;;;;;5078288;28;20040;-66
2023/04/19 06:38:01;;;;;;;8.55;4.55;;;6.30;99.90;;;;;;5080978;28;20050;-66
2023/04/19 06:40:30;;;;;;;5.50;4.10;;;6.30;99.90;;;;;;5080202;28;20566;-66
2023/04/19 06:42:56;;;;;;;8.73;4.55;;;6.40;99.90;;;;;;5064648;28;20493;-66
2023/04/19 06:45:22;;;;;;;5.65;3.78;;;6.50;99.90;;;;;;5067178;28;20389;-66
2023/04/19 06:47:47;;;;;;;7.00;4.05;;;6.50;99.90;;;;;;5083550;28;20074;-66
2023/04/19 06:50:13;;;;;;;6.93;4.30;;;6.70;99.90;;;;;;5063688;28;20645;-66
2023/04/19 06:52:39;;;;;;;8.18;4.30;;;6.70;99.90;;;;;;5045014;28;20032;-66
2023/04/19 06:55:08;;;;;;;5.13;3.97;;;6.80;99.90;;;;;;5088348;28;20185;-66
2023/04/19 06:57:34;;;;;;;7.00;4.28;;;6.90;99.90;;;;;;5088693;28;20264;-66
2023/04/19 07:00:00;;;;;;;7.60;3.58;;;7.00;99.90;;;;;;5089052;28;20111;-66
2023/04/19 07:02:26;;;;;;;7.97;4.40;;;7.10;99.90;;;;;;5070569;28;20482;-66
2023/04/19 07:04:51;;;;;;;7.95;3.63;;;7.10;99.90;;;;;;5089459;28;20028;-66
2023/04/19 07:07:17;;;;;;;5.00;3.70;;;7.30;99.90;;;;;;5070847;28;20082;-66
2023/04/19 07:09:43;;;;;;;6.68;3.72;;;7.40;99.90;;;;;;5072778;28;20486;-66
2023/04/19 07:12:09;;;;;;;5.43;3.70;;;7.50;99.90;;;;;;5088883;28;20120;-66
2023/04/19 07:14:35;;;;;;;7.82;3.40;;;7.60;99.90;;;;;;5089342;28;20340;-66
2023/04/19 07:17:02;;;;;;;7.97;3.53;;;7.80;99.90;;;;;;5070546;28;20036;-66
2023/04/19 07:19:28;;;;;;;4.75;3.20;;;8.00;99.90;;;;;;5070804;28;20066;-66
2023/04/19 07:21:54;;;;;;;6.68;3.33;;;8.70;99.90;;;;;;5088606;28;20119;-66
2023/04/19 07:24:20;;;;;;;6.80;3.17;;;9.70;99.90;;;;;;5070347;28;20105;-66
2023/04/19 07:26:45;;;;;;;5.88;3.30;;;10.80;99.90;;;;;;5070085;28;20040;-66
2023/04/19 07:29:11;;;;;;;5.07;3.13;;;11.70;99.90;;;;;;5054182;28;20044;-67
2023/04/19 07:31:37;;;;;;;6.18;3.42;;;12.30;98.90;;;;;;5092527;28;20525;-67
2023/04/19 07:34:02;;;;;;;4.65;3.53;;;12.90;98.80;;;;;;5092939;28;20032;-67
2023/04/19 07:36:29;;;;;;;7.18;3.92;;;13.20;97.90;;;;;;5092515;28;20062;-67
2023/04/19 07:38:55;;;;;;;4.38;3.22;;;13.70;97.60;;;;;;5091410;28;20047;-66
2023/04/19 07:41:20;;;;;;;3.97;3.10;;;14.00;94.50;;;;;;5071958;28;20961;-66
2023/04/19 07:43:46;;;;;;;5.28;3.30;;;14.00;93.60;;;;;;5057617;28;20629;-67
2023/04/19 07:46:14;;;;;;;6.05;3.53;;;14.30;94.00;;;;;;5074165;28;20074;-67
2023/04/19 07:48:40;;;;;;;4.25;3.00;;;14.30;91.80;;;;;;5057217;28;20397;-65
2023/04/19 07:51:11;;;;;;;6.22;3.28;;;14.50;92.40;;;;;;5092095;28;20476;-65
2023/04/19 07:53:38;;;;;;;6.00;3.30;;;14.40;90.60;;;;;;5091713;28;20511;-65
2023/04/19 07:56:06;;;;;;;4.25;3.15;;;14.60;90.70;;;;;;5075193;28;20046;-64
2023/04/19 07:58:32;;;;;;;4.47;3.35;;;15.00;91.50;;;;;;5090308;28;20256;-64
2023/04/19 08:00:57;;;;;;;6.07;3.35;;;14.80;90.00;;;;;;5070790;28;20048;-65
2023/04/19 08:03:24;;;;;;;6.05;3.50;;;14.60;86.50;;;;;;5090395;28;20032;-65
2023/04/19 08:05:49;;;;;;;4.15;3.20;;;14.80;89.20;;;;;;5091901;28;20039;-64
2023/04/19 08:08:15;;;;;;;4.50;3.58;;;14.90;86.70;;;;;;5091591;28;20040;-65
2023/04/19 08:10:41;;;;;;;5.70;3.38;;;15.00;86.30;;;;;;5073574;28;20082;-64
2023/04/19 08:13:07;;;;;;;6.13;3.78;;;15.10;85.90;;;;;;5073340;28;20044;-65
2023/04/19 08:15:34;;;;;;;4.88;3.20;;;15.10;83.40;;;;;;5092119;28;20040;-64
2023/04/19 08:18:00;;;;;;;5.50;3.63;;;15.50;83.70;;;;;;5073580;28;20090;-64
2023/04/19 08:20:25;;;;;;;5.45;3.70;;;15.10;81.80;;;;;;5057135;28;20075;-64
2023/04/19 08:22:53;;;;;;;6.50;3.17;;;15.30;82.00;;;;;;5091616;28;20040;-64
2023/04/19 08:25:18;;;;;;;4.38;3.40;;;15.50;81.00;;;;;;5091449;28;20048;-66
2023/04/19 08:27:44;;;;;;;5.65;3.40;;;15.40;81.50;;;;;;5091104;28;20056;-66
2023/04/19 08:30:10;;;;;;;6.00;3.38;;;15.60;80.10;;;;;;5091558;28;20119;-66
2023/04/19 08:32:36;;;;;;;4.95;3.30;;;15.70;81.00;;;;;;5089604;28;20040;-65
2023/04/19 08:35:07;;;;;;;6.07;3.45;;;16.00;80.60;;;;;;5056598;28;20112;-65
2023/04/19 08:37:32;;;;;;;7.60;3.42;;;16.00;77.30;;;;;;5090044;28;20401;-65
2023/04/19 08:39:58;;;;;;;8.15;3.50;;;16.20;79.30;;;;;;5073225;28;20040;-65
2023/04/19 08:42:24;;;;;;;3.97;3.15;;;16.30;79.00;;;;;;5073658;28;20040;-65
2023/04/19 08:44:51;;;;;;;5.10;3.03;;;16.20;78.20;;;;;;5073680;28;20044;-65
2023/04/19 08:47:18;;;;;;;6.05;3.25;;;16.30;76.60;;;;;;5090872;28;20043;-65
2023/04/19 08:49:44;;;;;;;4.03;3.28;;;16.30;75.30;;;;;;5091091;28;20040;-66
2023/04/19 08:52:12;;;;;;;5.25;3.00;;;16.20;76.20;;;;;;5056661;28;20437;-64
2023/04/19 08:54:38;;;;;;;6.20;3.25;;;16.40;78.20;;;;;;5091433;28;20157;-65
2023/04/19 08:57:05;;;;;;;5.47;3.00;;;16.60;74.90;;;;;;5081267;28;20440;-65
2023/04/19 08:59:31;;;;;;;4.20;2.72;;;17.00;74.70;;;;;;5091408;28;20100;-65
2023/04/19 09:02:00;;;;;;;4.32;3.13;;;17.60;74.00;;;;;;5039406;28;20078;-65
2023/04/19 09:04:26;;;;;;;6.70;3.30;;;17.30;74.10;;;;;;5039634;28;20032;-65
2023/04/19 09:06:53;;;;;;;4.28;2.72;;;17.50;74.40;;;;;;5091080;28;20036;-65
2023/04/19 09:09:24;;;;;;;5.00;3.00;;;17.70;73.90;;;;;;5090478;28;20131;-66
2023/04/19 09:11:50;;;;;;;4.10;2.75;;;17.40;70.90;;;;;;5090364;28;20177;-65
2023/04/19 09:14:18;;;;;;;5.07;2.72;;;17.10;71.40;;;;;;5090894;28;20114;-65
2023/04/19 09:16:44;;;;;;;5.28;2.63;;;17.30;72.60;;;;;;5072128;28;20048;-66
2023/04/19 09:19:15;;;;;;;3.20;2.70;;;17.20;70.60;;;;;;5089157;28;20043;-66
2023/04/19 09:21:41;;;;;;;8.07;3.42;;;17.10;69.90;;;;;;5087207;28;20044;-65
2023/04/19 09:24:07;;;;;;;5.55;3.10;;;16.80;69.50;;;;;;5054979;28;20048;-65
2023/04/19 09:26:34;;;;;;;4.28;3.05;;;17.00;71.40;;;;;;5071876;28;20039;-65
2023/04/19 09:29:02;;;;;;;9.82;3.28;;;17.30;68.50;;;;;;5089806;28;20530;-66
2023/04/19 09:31:29;;;;;;;5.50;2.80;;;17.40;69.70;;;;;;5093658;28;20057;-65
2023/04/19 09:33:55;;;;;;;3.50;2.50;;;17.40;70.50;;;;;;5091721;28;20036;-65
2023/04/19 09:36:29;;;;;;;3.13;2.80;;;17.20;71.10;;;;;;5090462;28;20035;-65
2023/04/19 09:38:55;;;;;;;4.93;2.95;;;17.30;69.70;;;;;;5090115;28;20032;-66
2023/04/19 09:41:21;;;;;;;3.15;2.60;;;17.40;71.80;;;;;;5087935;28;20047;-65
2023/04/19 09:43:47;;;;;;;4.22;2.60;;;17.50;70.40;;;;;;5090147;28;20517;-65
2023/04/19 09:46:32;;;;;;;4.50;2.70;;;17.60;69.60;;;;;;5090194;28;20055;-65
2023/04/19 09:49:16;;;;;;;3.15;2.35;;;17.40;68.30;;;;;;5089952;28;20118;-65
2023/04/19 09:51:41;;;;;;;4.25;2.55;;;17.70;69.80;;;;;;5089550;28;20040;-65
2023/04/19 09:54:12;;;;;;;6.38;2.42;;;18.10;70.20;;;;;;5089256;28;20047;-65
2023/04/19 09:56:39;;;;;;;13.45;2.65;;;18.00;67.20;;;;;;5073207;28;20044;-65
2023/04/19 09:59:07;;;;;;;5.32;2.60;;;17.90;68.00;;;;;;5084415;28;20047;-65
2023/04/19 10:01:54;;;;;;;3.65;2.90;;;18.00;66.50;;;;;;5073104;28;20032;-65
2023/04/19 10:04:21;;;;;;;3.30;2.25;;;18.00;65.60;;;;;;5070325;28;20044;-65
2023/04/19 10:06:49;;;;;;;7.80;2.65;;;18.20;65.10;;;;;;5053639;28;20039;-65
2023/04/19 10:09:16;;;;;;;4.05;2.53;;;17.80;63.90;;;;;;5071533;28;20440;-66
2023/04/19 10:11:46;;;;;;;3.65;2.22;;;17.70;65.10;;;;;;5089079;28;20039;-65
2023/04/19 10:14:14;;;;;;;5.60;2.40;;;17.90;63.60;;;;;;5089340;28;20055;-65
2023/04/19 10:16:40;;;;;;;4.13;2.88;;;17.90;61.60;;;;;;5071281;28;20051;-66
2023/04/19 10:19:09;;;;;;;5.53;2.25;;;17.90;60.30;;;;;;5088513;28;20385;-66
2023/04/19 10:21:37;;;;;;;3.50;2.40;;;17.50;62.80;;;;;;5088519;28;20119;-65
2023/04/19 10:24:04;;;;;;;3.95;2.72;;;17.60;64.30;;;;;;5089653;28;20044;-66
2023/04/19 10:27:07;;;;;;;8.50;3.25;;;17.60;62.30;;;;;;5077309;28;20052;-65
2023/04/19 10:29:52;;;;;;;;;;;17.60;63.20;;;;;;5087740;28;20548;-66
2023/04/19 10:32:18;;;;;;;3.42;2.28;;;17.40;61.60;;;;;;5089203;28;20381;-66
2023/04/19 10:34:45;;;;;;;6.80;2.60;;;17.20;62.90;;;;;;5089395;28;20036;-66
2023/04/19 10:37:14;;;;;;;6.90;2.40;;;17.00;61.40;;;;;;5088791;28;20469;-66
2023/04/19 10:39:42;;;;;;;5.00;2.03;;;17.00;62.90;;;;;;5069844;28;20048;-65
2023/04/19 10:42:08;;;;;;;3.42;2.15;;;16.80;62.50;;;;;;5070530;28;20405;-66
2023/04/19 10:44:34;;;;;;;4.30;2.45;;;16.80;60.80;;;;;;5078404;28;20103;-66
2023/04/19 10:46:59;;;;;;;3.17;2.25;;;16.70;62.10;;;;;;5080608;28;20117;-66
2023/04/19 10:49:27;;;;;;;5.05;2.40;;;16.60;59.80;;;;;;5088478;28;20040;-67
2023/04/19 10:51:53;;;;;;;3.90;2.25;;;16.90;60.90;;;;;;5070094;28;20044;-66
2023/04/19 10:54:30;;;;;;;3.47;2.42;;;17.30;62.20;;;;;;5088927;28;20382;-67
2023/04/19 10:56:58;;;;;;;3.63;2.20;;;17.30;61.40;;;;;;5070651;28;20149;-66
2023/04/19 10:59:23;;;;;;;4.07;2.10;;;17.50;62.00;;;;;;5052266;28;20055;-67
2023/04/19 11:01:57;;;;;;;3.38;2.22;;;17.80;61.80;;;;;;5087180;28;20040;-67
2023/04/19 11:04:30;;;;;;;2.47;2.22;;;17.90;59.90;;;;;;5089246;28;20083;-66
2023/04/19 11:07:03;;;;;;;6.28;2.55;;;18.00;58.70;;;;;;5091323;28;20036;-67
2023/04/19 11:09:31;;;;;;;2.72;2.38;;;18.00;58.30;;;;;;5092938;28;20048;-67
2023/04/19 11:12:07;;;;;;;4.03;1.90;;;17.80;58.30;;;;;;5093387;28;20036;-67
2023/04/19 11:14:43;;;;;;;3.50;2.20;;;17.60;60.30;;;;;;5074703;28;20125;-67
2023/04/19 11:17:19;;;;;;;4.93;2.40;;;17.60;59.70;;;;;;5092242;28;20040;-67
2023/04/19 11:19:56;;;;;;;2.30;2.10;;;17.30;60.10;;;;;;5074419;28;20090;-66
2023/04/19 11:22:32;;;;;;;3.90;2.40;;;17.10;60.90;;;;;;5091515;28;20050;-67
2023/04/19 11:25:04;;;;;;;7.20;2.20;;;17.00;62.10;;;;;;5092830;28;20055;-67
2023/04/19 11:27:31;;;;;;;;;;;16.90;60.20;;;;;;5092991;28;20040;-67
2023/04/19 11:30:24;;;;;;;4.55;2.30;;;16.80;63.20;;;;;;5092841;28;20055;-67
2023/04/19 11:32:52;;;;;;;3.30;2.55;;;16.70;64.30;;;;;;5072438;28;20067;-66
2023/04/19 11:35:26;;;;;;;4.07;2.50;;;16.70;63.00;;;;;;5103766;28;20118;-66
2023/04/19 11:37:53;;;;;;;4.25;2.40;;;16.60;63.60;;;;;;5092941;28;20035;-66
2023/04/19 11:40:22;;;;;;;3.25;2.42;;;16.50;64.90;;;;;;5074465;28;20104;-66
2023/04/19 11:42:54;;;;;;;3.17;2.28;;;16.50;63.40;;;;;;5101944;28;20036;-66
2023/04/19 11:45:28;;;;;;;;;;;16.50;64.30;;;;;;5104233;28;20148;-66
2023/04/19 11:47:54;;;;;;;6.43;2.83;;;16.50;64.30;;;;;;5092490;28;19916;-66
2023/04/19 11:50:49;;;;;;;4.65;2.60;;;16.50;64.50;;;;;;5092423;28;20170;-66
2023/04/19 11:53:23;;;;;;;4.53;2.90;;;16.60;64.10;;;;;;5073486;28;20089;-66
2023/04/19 11:55:51;;;;;;;4.25;2.75;;;16.80;67.00;;;;;;5073512;28;20068;-66
2023/04/19 11:58:36;;;;;;;5.22;2.60;;;16.80;65.60;;;;;;5073827;28;20032;-66
2023/04/19 12:01:13;;;;;;;5.00;2.92;;;16.80;66.40;;;;;;5092271;28;20082;-66
2023/04/19 12:03:51;;;;;;;4.43;2.88;;;17.00;65.10;;;;;;5091671;28;20075;-66
2023/04/19 12:06:25;;;;;;;5.82;3.00;;;17.00;66.40;;;;;;5081371;28;20443;-66
2023/04/19 12:08:52;;;;;;;3.88;2.85;;;16.90;64.60;;;;;;5088905;28;20058;-66
2023/04/19 12:11:22;;;;;;;5.75;2.97;;;17.00;66.20;;;;;;5080110;28;20585;-66
2023/04/19 12:14:06;;;;;;;5.32;3.22;;;17.00;66.20;;;;;;5089706;28;20052;-65
2023/04/19 12:16:31;;;;;;;6.93;3.50;;;17.10;67.50;;;;;;5077766;28;20048;-65
2023/04/19 12:18:57;;;;;;;9.07;3.17;;;17.20;67.40;;;;;;5077837;28;20040;-66
2023/04/19 12:21:32;;;;;;;3.80;3.10;;;17.00;67.80;;;;;;5066054;28;20089;-66
2023/04/19 12:24:00;;;;;;;4.10;3.45;;;17.10;66.70;;;;;;5080293;28;20048;-66
2023/04/19 12:26:27;;;;;;;3.67;2.90;;;17.00;69.00;;;;;;5085143;28;20093;-66
2023/04/19 12:28:54;;;;;;;3.85;3.05;;;17.10;67.90;;;;;;5060195;28;20446;-66
2023/04/19 12:31:20;;;;;;;3.78;2.88;;;17.30;67.50;;;;;;5080146;28;20044;-66
2023/04/19 12:33:46;;;;;;;5.90;3.42;;;17.00;65.30;;;;;;5082968;28;20504;-66
2023/04/19 12:36:12;;;;;;;6.32;3.92;;;17.00;67.80;;;;;;5067489;28;20044;-66
2023/04/19 12:38:37;;;;;;;6.30;3.40;;;17.10;70.10;;;;;;5082434;28;20060;-66
2023/04/19 12:41:03;;;;;;;6.30;3.50;;;17.20;70.20;;;;;;5068431;28;20083;-66
2023/04/19 12:43:30;;;;;;;4.97;3.80;;;17.40;70.50;;;;;;5018174;28;20340;-66
2023/04/19 12:45:57;;;;;;;7.20;3.53;;;17.30;67.60;;;;;;5080215;28;20126;-66
2023/04/19 12:48:23;;;;;;;5.93;3.38;;;17.20;66.80;;;;;;5040985;28;20052;-66